sensor_id;sensor_type;location;lat;lon;timestamp;temperature;humidity
47114;DHT22;32867;51.556;6.832;2023-02-28T00:03:54;3.90;81.70
47114;DHT22;32867;51.556;6.832;2023-02-28T00:08:54;3.80;82.30
47114;DHT22;32867;51.556;6.832;2023-02-28T00:13:55;3.70;82.40
47114;DHT22;32867;51.556;6.832;2023-02-28T00:18:56;3.60;82.60
47114;DHT22;32867;51.556;6.832;2023-02-28T00:23:56;3.70;82.60
47114;DHT22;32867;51.556;6.832;2023-02-28T00:28:57;3.60;82.40
47114;DHT22;32867;51.556;6.832;2023-02-28T00:33:57;3.60;83.10
47114;DHT22;32867;51.556;6.832;2023-02-28T00:38:58;3.60;83.10
47114;DHT22;32867;51.556;6.832;2023-02-28T00:44:02;3.60;83.60
47114;DHT22;32867;51.556;6.832;2023-02-28T00:49:02;3.50;83.50
47114;DHT22;32867;51.556;6.832;2023-02-28T00:54:03;3.50;84.00
47114;DHT22;32867;51.556;6.832;2023-02-28T00:59:04;3.40;84.60
47114;DHT22;32867;51.556;6.832;2023-02-28T01:04:04;3.30;84.60
47114;DHT22;32867;51.556;6.832;2023-02-28T01:09:06;3.20;84.70
47114;DHT22;32867;51.556;6.832;2023-02-28T01:14:08;3.20;85.30
47114;DHT22;32867;51.556;6.832;2023-02-28T01:19:09;3.20;85.50
47114;DHT22;32867;51.556;6.832;2023-02-28T01:24:09;3.10;85.50
47114;DHT22;32867;51.556;6.832;2023-02-28T01:29:10;3.10;85.90
47114;DHT22;32867;51.556;6.832;2023-02-28T01:34:11;3.00;86.00
47114;DHT22;32867;51.556;6.832;2023-02-28T01:39:12;3.00;86.10
47114;DHT22;32867;51.556;6.832;2023-02-28T01:49:51;2.90;86.50
47114;DHT22;32867;51.556;6.832;2023-02-28T01:54:55;2.80;86.60
47114;DHT22;32867;51.556;6.832;2023-02-28T02:00:03;2.80;86.60
47114;DHT22;32867;51.556;6.832;2023-02-28T02:05:17;2.70;86.90
47114;DHT22;32867;51.556;6.832;2023-02-28T02:10:22;2.70;87.00
47114;DHT22;32867;51.556;6.832;2023-02-28T02:31:49;2.60;88.00
47114;DHT22;32867;51.556;6.832;2023-02-28T02:42:15;2.50;88.30
47114;DHT22;32867;51.556;6.832;2023-02-28T02:47:19;2.40;88.40
47114;DHT22;32867;51.556;6.832;2023-02-28T02:52:27;2.40;88.60
47114;DHT22;32867;51.556;6.832;2023-02-28T02:57:33;2.30;88.70
47114;DHT22;32867;51.556;6.832;2023-02-28T03:02:37;2.30;88.60
47114;DHT22;32867;51.556;6.832;2023-02-28T03:07:38;2.30;88.50
47114;DHT22;32867;51.556;6.832;2023-02-28T03:12:43;2.30;88.00
47114;DHT22;32867;51.556;6.832;2023-02-28T03:18:32;2.20;88.10
47114;DHT22;32867;51.556;6.832;2023-02-28T03:23:41;2.10;88.30
47114;DHT22;32867;51.556;6.832;2023-02-28T03:33:58;2.10;88.20
47114;DHT22;32867;51.556;6.832;2023-02-28T03:39:04;2.00;88.20
47114;DHT22;32867;51.556;6.832;2023-02-28T03:44:10;2.00;88.70
47114;DHT22;32867;51.556;6.832;2023-02-28T03:49:30;1.90;88.60
47114;DHT22;32867;51.556;6.832;2023-02-28T03:54:35;2.00;88.40
47114;DHT22;32867;51.556;6.832;2023-02-28T03:59:44;1.90;88.70
47114;DHT22;32867;51.556;6.832;2023-02-28T04:04:47;1.90;88.80
47114;DHT22;32867;51.556;6.832;2023-02-28T04:09:48;1.90;88.70
47114;DHT22;32867;51.556;6.832;2023-02-28T04:14:49;1.80;88.50
47114;DHT22;32867;51.556;6.832;2023-02-28T04:19:50;1.80;88.40
47114;DHT22;32867;51.556;6.832;2023-02-28T04:24:51;1.80;88.30
47114;DHT22;32867;51.556;6.832;2023-02-28T04:29:54;1.70;88.40
47114;DHT22;32867;51.556;6.832;2023-02-28T04:34:55;1.70;88.50
47114;DHT22;32867;51.556;6.832;2023-02-28T04:39:55;1.60;88.60
47114;DHT22;32867;51.556;6.832;2023-02-28T04:44:56;1.60;88.40
47114;DHT22;32867;51.556;6.832;2023-02-28T04:49:57;1.60;88.60
47114;DHT22;32867;51.556;6.832;2023-02-28T04:54:58;1.60;88.70
47114;DHT22;32867;51.556;6.832;2023-02-28T04:59:58;1.60;88.50
47114;DHT22;32867;51.556;6.832;2023-02-28T05:04:59;1.60;88.00
47114;DHT22;32867;51.556;6.832;2023-02-28T05:10:00;1.60;88.20
47114;DHT22;32867;51.556;6.832;2023-02-28T05:15:01;1.50;88.40
47114;DHT22;32867;51.556;6.832;2023-02-28T05:20:02;1.40;88.40
47114;DHT22;32867;51.556;6.832;2023-02-28T05:25:06;1.40;88.30
47114;DHT22;32867;51.556;6.832;2023-02-28T05:30:07;1.40;88.40
47114;DHT22;32867;51.556;6.832;2023-02-28T05:35:11;1.40;88.60
47114;DHT22;32867;51.556;6.832;2023-02-28T05:40:12;1.40;88.50
47114;DHT22;32867;51.556;6.832;2023-02-28T05:45:13;1.30;88.90
47114;DHT22;32867;51.556;6.832;2023-02-28T05:50:14;1.30;89.30
47114;DHT22;32867;51.556;6.832;2023-02-28T05:55:15;1.30;89.50
47114;DHT22;32867;51.556;6.832;2023-02-28T06:00:16;1.20;89.40
47114;DHT22;32867;51.556;6.832;2023-02-28T06:05:18;1.10;89.50
47114;DHT22;32867;51.556;6.832;2023-02-28T06:10:19;1.10;89.60
47114;DHT22;32867;51.556;6.832;2023-02-28T06:15:20;1.00;89.90
47114;DHT22;32867;51.556;6.832;2023-02-28T06:20:21;0.90;90.10
47114;DHT22;32867;51.556;6.832;2023-02-28T06:25:22;0.90;90.20
47114;DHT22;32867;51.556;6.832;2023-02-28T06:30:22;0.90;90.10
47114;DHT22;32867;51.556;6.832;2023-02-28T06:35:25;0.90;90.20
47114;DHT22;32867;51.556;6.832;2023-02-28T06:40:27;0.90;90.20
47114;DHT22;32867;51.556;6.832;2023-02-28T06:45:27;0.80;90.40
47114;DHT22;32867;51.556;6.832;2023-02-28T06:50:28;0.90;90.40
47114;DHT22;32867;51.556;6.832;2023-02-28T06:55:29;0.80;90.50
47114;DHT22;32867;51.556;6.832;2023-02-28T07:00:30;0.90;90.70
47114;DHT22;32867;51.556;6.832;2023-02-28T07:05:31;1.00;90.60
47114;DHT22;32867;51.556;6.832;2023-02-28T07:10:33;1.00;90.70
47114;DHT22;32867;51.556;6.832;2023-02-28T07:15:34;1.00;90.60
47114;DHT22;32867;51.556;6.832;2023-02-28T07:20:35;1.10;90.70
47114;DHT22;32867;51.556;6.832;2023-02-28T07:25:36;1.20;90.50
47114;DHT22;32867;51.556;6.832;2023-02-28T07:30:36;1.30;90.40
47114;DHT22;32867;51.556;6.832;2023-02-28T07:35:37;1.50;90.40
47114;DHT22;32867;51.556;6.832;2023-02-28T07:40:37;1.60;90.20
47114;DHT22;32867;51.556;6.832;2023-02-28T07:45:38;1.70;90.20
47114;DHT22;32867;51.556;6.832;2023-02-28T07:50:39;1.90;90.20
47114;DHT22;32867;51.556;6.832;2023-02-28T07:55:39;2.00;89.90
47114;DHT22;32867;51.556;6.832;2023-02-28T08:00:40;2.20;89.80
47114;DHT22;32867;51.556;6.832;2023-02-28T08:05:41;2.40;88.70
47114;DHT22;32867;51.556;6.832;2023-02-28T08:10:42;2.70;88.50
47114;DHT22;32867;51.556;6.832;2023-02-28T08:15:42;3.70;88.70
47114;DHT22;32867;51.556;6.832;2023-02-28T08:20:43;5.30;86.30
47114;DHT22;32867;51.556;6.832;2023-02-28T08:25:44;6.70;82.20
47114;DHT22;32867;51.556;6.832;2023-02-28T08:30:44;8.10;78.90
47114;DHT22;32867;51.556;6.832;2023-02-28T08:35:45;9.10;74.50
47114;DHT22;32867;51.556;6.832;2023-02-28T08:40:46;10.00;72.00
47114;DHT22;32867;51.556;6.832;2023-02-28T08:45:46;10.90;69.20
47114;DHT22;32867;51.556;6.832;2023-02-28T08:50:57;11.80;66.60
47114;DHT22;32867;51.556;6.832;2023-02-28T08:56:04;12.30;61.00
47114;DHT22;32867;51.556;6.832;2023-02-28T09:06:10;10.50;61.20
47114;DHT22;32867;51.556;6.832;2023-02-28T09:11:12;9.70;62.50
47114;DHT22;32867;51.556;6.832;2023-02-28T09:16:14;9.30;62.80
47114;DHT22;32867;51.556;6.832;2023-02-28T09:21:18;9.10;62.60
47114;DHT22;32867;51.556;6.832;2023-02-28T09:26:24;8.80;61.60
47114;DHT22;32867;51.556;6.832;2023-02-28T09:31:27;8.90;60.10
47114;DHT22;32867;51.556;6.832;2023-02-28T09:36:28;8.80;59.80
47114;DHT22;32867;51.556;6.832;2023-02-28T09:41:41;9.20;57.70
47114;DHT22;32867;51.556;6.832;2023-02-28T09:46:51;10.60;57.00
47114;DHT22;32867;51.556;6.832;2023-02-28T09:52:02;13.60;54.20
47114;DHT22;32867;51.556;6.832;2023-02-28T10:13:24;19.50;44.00
47114;DHT22;32867;51.556;6.832;2023-02-28T10:18:30;19.70;43.60
47114;DHT22;32867;51.556;6.832;2023-02-28T10:23:35;20.00;43.20
47114;DHT22;32867;51.556;6.832;2023-02-28T10:28:37;20.40;44.40
47114;DHT22;32867;51.556;6.832;2023-02-28T10:33:38;20.40;44.10
47114;DHT22;32867;51.556;6.832;2023-02-28T10:38:39;21.20;43.10
47114;DHT22;32867;51.556;6.832;2023-02-28T10:43:42;21.80;42.10
47114;DHT22;32867;51.556;6.832;2023-02-28T10:48:57;22.60;39.80
47114;DHT22;32867;51.556;6.832;2023-02-28T10:54:00;20.10;39.70
47114;DHT22;32867;51.556;6.832;2023-02-28T10:59:11;18.80;42.30
47114;DHT22;32867;51.556;6.832;2023-02-28T11:09:30;15.20;46.30
47114;DHT22;32867;51.556;6.832;2023-02-28T11:14:46;16.60;44.00
47114;DHT22;32867;51.556;6.832;2023-02-28T11:19:52;18.30;42.70
47114;DHT22;32867;51.556;6.832;2023-02-28T11:24:56;18.90;42.60
47114;DHT22;32867;51.556;6.832;2023-02-28T11:29:58;19.60;41.70
47114;DHT22;32867;51.556;6.832;2023-02-28T11:45:42;22.50;39.30
47114;DHT22;32867;51.556;6.832;2023-02-28T11:51:12;22.90;39.60
47114;DHT22;32867;51.556;6.832;2023-02-28T11:56:37;23.40;37.90
47114;DHT22;32867;51.556;6.832;2023-02-28T12:07:26;24.80;37.60
47114;DHT22;32867;51.556;6.832;2023-02-28T12:23:33;24.90;37.00
47114;DHT22;32867;51.556;6.832;2023-02-28T12:28:42;24.80;36.90
47114;DHT22;32867;51.556;6.832;2023-02-28T12:33:51;25.80;37.50
47114;DHT22;32867;51.556;6.832;2023-02-28T12:39:00;26.30;36.30
47114;DHT22;32867;51.556;6.832;2023-02-28T12:44:05;26.00;36.70
47114;DHT22;32867;51.556;6.832;2023-02-28T12:49:13;24.90;36.40
47114;DHT22;32867;51.556;6.832;2023-02-28T12:59:50;26.70;37.70
47114;DHT22;32867;51.556;6.832;2023-02-28T13:10:11;27.10;36.30
47114;DHT22;32867;51.556;6.832;2023-02-28T13:15:32;27.10;36.90
47114;DHT22;32867;51.556;6.832;2023-02-28T13:20:37;27.00;37.40
47114;DHT22;32867;51.556;6.832;2023-02-28T13:25:50;27.20;36.20
47114;DHT22;32867;51.556;6.832;2023-02-28T13:41:41;24.60;37.50
47114;DHT22;32867;51.556;6.832;2023-02-28T13:51:49;21.50;39.10
47114;DHT22;32867;51.556;6.832;2023-02-28T14:07:46;22.30;39.60
47114;DHT22;32867;51.556;6.832;2023-02-28T14:17:57;23.20;38.70
47114;DHT22;32867;51.556;6.832;2023-02-28T14:23:21;22.40;39.40
47114;DHT22;32867;51.556;6.832;2023-02-28T14:33:48;22.30;39.70
47114;DHT22;32867;51.556;6.832;2023-02-28T14:39:06;22.30;40.80
47114;DHT22;32867;51.556;6.832;2023-02-28T14:49:35;21.40;40.30
47114;DHT22;32867;51.556;6.832;2023-02-28T14:54:37;20.70;41.80
47114;DHT22;32867;51.556;6.832;2023-02-28T14:59:38;19.30;42.20
47114;DHT22;32867;51.556;6.832;2023-02-28T15:04:38;18.40;43.50
47114;DHT22;32867;51.556;6.832;2023-02-28T15:09:39;17.80;43.70
47114;DHT22;32867;51.556;6.832;2023-02-28T15:14:42;17.30;45.30
47114;DHT22;32867;51.556;6.832;2023-02-28T15:19:46;16.80;45.50
47114;DHT22;32867;51.556;6.832;2023-02-28T15:24:50;16.20;46.10
47114;DHT22;32867;51.556;6.832;2023-02-28T15:29:57;15.70;46.20
47114;DHT22;32867;51.556;6.832;2023-02-28T15:35:16;15.40;46.30
47114;DHT22;32867;51.556;6.832;2023-02-28T15:40:27;14.70;47.20
47114;DHT22;32867;51.556;6.832;2023-02-28T15:45:33;15.00;47.30
47114;DHT22;32867;51.556;6.832;2023-02-28T15:50:38;14.60;47.50
47114;DHT22;32867;51.556;6.832;2023-02-28T15:55:38;14.60;47.60
47114;DHT22;32867;51.556;6.832;2023-02-28T16:00:43;14.30;47.90
47114;DHT22;32867;51.556;6.832;2023-02-28T16:05:45;13.80;48.90
47114;DHT22;32867;51.556;6.832;2023-02-28T16:10:46;13.70;49.00
47114;DHT22;32867;51.556;6.832;2023-02-28T16:15:47;13.40;49.20
47114;DHT22;32867;51.556;6.832;2023-02-28T16:20:49;13.10;49.70
47114;DHT22;32867;51.556;6.832;2023-02-28T16:25:50;13.00;49.90
47114;DHT22;32867;51.556;6.832;2023-02-28T16:30:52;12.90;50.20
47114;DHT22;32867;51.556;6.832;2023-02-28T16:35:52;12.90;50.20
47114;DHT22;32867;51.556;6.832;2023-02-28T16:40:56;12.80;50.60
47114;DHT22;32867;51.556;6.832;2023-02-28T16:45:58;12.40;51.00
47114;DHT22;32867;51.556;6.832;2023-02-28T16:50:59;12.30;51.40
47114;DHT22;32867;51.556;6.832;2023-02-28T16:56:00;12.10;51.80
47114;DHT22;32867;51.556;6.832;2023-02-28T17:01:03;11.80;52.20
47114;DHT22;32867;51.556;6.832;2023-02-28T17:06:04;11.60;52.60
47114;DHT22;32867;51.556;6.832;2023-02-28T17:11:05;11.30;53.10
47114;DHT22;32867;51.556;6.832;2023-02-28T17:16:07;11.00;53.70
47114;DHT22;32867;51.556;6.832;2023-02-28T17:21:14;10.80;53.90
47114;DHT22;32867;51.556;6.832;2023-02-28T17:26:17;10.50;54.50
47114;DHT22;32867;51.556;6.832;2023-02-28T17:31:20;10.40;54.70
47114;DHT22;32867;51.556;6.832;2023-02-28T17:36:24;10.10;54.90
47114;DHT22;32867;51.556;6.832;2023-02-28T17:41:26;9.90;55.50
47114;DHT22;32867;51.556;6.832;2023-02-28T17:46:27;9.70;55.90
47114;DHT22;32867;51.556;6.832;2023-02-28T17:51:28;9.60;56.10
47114;DHT22;32867;51.556;6.832;2023-02-28T17:56:29;9.40;56.40
47114;DHT22;32867;51.556;6.832;2023-02-28T18:01:30;9.30;56.70
47114;DHT22;32867;51.556;6.832;2023-02-28T18:06:40;9.20;57.10
47114;DHT22;32867;51.556;6.832;2023-02-28T18:11:46;9.10;57.40
47114;DHT22;32867;51.556;6.832;2023-02-28T18:16:50;8.90;57.80
47114;DHT22;32867;51.556;6.832;2023-02-28T18:21:52;8.80;57.90
47114;DHT22;32867;51.556;6.832;2023-02-28T18:26:53;8.70;58.00
47114;DHT22;32867;51.556;6.832;2023-02-28T18:31:55;8.60;58.40
47114;DHT22;32867;51.556;6.832;2023-02-28T18:36:55;8.50;58.90
47114;DHT22;32867;51.556;6.832;2023-02-28T18:41:57;8.30;59.30
47114;DHT22;32867;51.556;6.832;2023-02-28T18:46:57;8.20;59.90
47114;DHT22;32867;51.556;6.832;2023-02-28T18:51:59;8.00;60.20
47114;DHT22;32867;51.556;6.832;2023-02-28T18:56:59;7.90;60.50
47114;DHT22;32867;51.556;6.832;2023-02-28T19:02:00;7.80;61.00
47114;DHT22;32867;51.556;6.832;2023-02-28T19:07:01;7.70;60.90
47114;DHT22;32867;51.556;6.832;2023-02-28T19:12:02;7.60;61.20
47114;DHT22;32867;51.556;6.832;2023-02-28T19:17:03;7.50;61.30
47114;DHT22;32867;51.556;6.832;2023-02-28T19:22:03;7.30;61.30
47114;DHT22;32867;51.556;6.832;2023-02-28T19:27:04;7.20;62.00
47114;DHT22;32867;51.556;6.832;2023-02-28T19:32:04;7.10;62.30
47114;DHT22;32867;51.556;6.832;2023-02-28T19:37:05;6.90;62.70
47114;DHT22;32867;51.556;6.832;2023-02-28T19:42:07;6.90;63.00
47114;DHT22;32867;51.556;6.832;2023-02-28T19:47:08;6.70;63.30
47114;DHT22;32867;51.556;6.832;2023-02-28T19:52:09;6.60;63.60
47114;DHT22;32867;51.556;6.832;2023-02-28T19:57:09;6.60;63.90
47114;DHT22;32867;51.556;6.832;2023-02-28T20:02:15;6.50;64.40
47114;DHT22;32867;51.556;6.832;2023-02-28T20:07:17;6.40;64.70
47114;DHT22;32867;51.556;6.832;2023-02-28T20:12:21;6.30;65.10
47114;DHT22;32867;51.556;6.832;2023-02-28T20:17:23;6.20;65.60
47114;DHT22;32867;51.556;6.832;2023-02-28T20:22:24;6.10;65.50
47114;DHT22;32867;51.556;6.832;2023-02-28T20:27:24;6.00;65.90
47114;DHT22;32867;51.556;6.832;2023-02-28T20:32:25;6.00;65.90
47114;DHT22;32867;51.556;6.832;2023-02-28T20:37:26;5.90;66.20
47114;DHT22;32867;51.556;6.832;2023-02-28T20:42:27;5.90;66.80
47114;DHT22;32867;51.556;6.832;2023-02-28T20:47:28;5.80;66.30
47114;DHT22;32867;51.556;6.832;2023-02-28T20:52:28;5.80;67.00
47114;DHT22;32867;51.556;6.832;2023-02-28T20:57:29;5.60;67.40
47114;DHT22;32867;51.556;6.832;2023-02-28T21:02:30;5.60;67.80
47114;DHT22;32867;51.556;6.832;2023-02-28T21:07:30;5.50;68.00
47114;DHT22;32867;51.556;6.832;2023-02-28T21:12:31;5.40;68.30
47114;DHT22;32867;51.556;6.832;2023-02-28T21:17:32;5.30;68.50
47114;DHT22;32867;51.556;6.832;2023-02-28T21:22:32;5.20;68.80
47114;DHT22;32867;51.556;6.832;2023-02-28T21:27:33;5.10;69.30
47114;DHT22;32867;51.556;6.832;2023-02-28T21:32:34;5.00;69.30
47114;DHT22;32867;51.556;6.832;2023-02-28T21:37:37;4.90;69.70
47114;DHT22;32867;51.556;6.832;2023-02-28T21:42:37;4.90;69.90
47114;DHT22;32867;51.556;6.832;2023-02-28T21:47:38;4.90;70.30
47114;DHT22;32867;51.556;6.832;2023-02-28T21:52:39;4.90;71.10
47114;DHT22;32867;51.556;6.832;2023-02-28T21:57:40;4.80;70.80
47114;DHT22;32867;51.556;6.832;2023-02-28T22:02:41;4.70;71.10
47114;DHT22;32867;51.556;6.832;2023-02-28T22:07:43;4.60;71.30
47114;DHT22;32867;51.556;6.832;2023-02-28T22:12:44;4.60;71.50
47114;DHT22;32867;51.556;6.832;2023-02-28T22:17:44;4.60;71.80
47114;DHT22;32867;51.556;6.832;2023-02-28T22:22:45;4.60;72.10
47114;DHT22;32867;51.556;6.832;2023-02-28T22:27:46;4.50;72.10
47114;DHT22;32867;51.556;6.832;2023-02-28T22:32:46;4.40;72.30
47114;DHT22;32867;51.556;6.832;2023-02-28T22:37:47;4.40;72.70
47114;DHT22;32867;51.556;6.832;2023-02-28T22:42:48;4.30;72.70
47114;DHT22;32867;51.556;6.832;2023-02-28T22:47:48;4.30;72.90
47114;DHT22;32867;51.556;6.832;2023-02-28T22:52:49;4.20;73.40
47114;DHT22;32867;51.556;6.832;2023-02-28T22:57:50;4.20;73.30
47114;DHT22;32867;51.556;6.832;2023-02-28T23:02:50;4.20;73.80
47114;DHT22;32867;51.556;6.832;2023-02-28T23:07:51;4.10;73.90
47114;DHT22;32867;51.556;6.832;2023-02-28T23:12:52;4.00;74.20
47114;DHT22;32867;51.556;6.832;2023-02-28T23:17:52;3.90;74.50
47114;DHT22;32867;51.556;6.832;2023-02-28T23:22:53;3.90;74.50
47114;DHT22;32867;51.556;6.832;2023-02-28T23:27:54;3.80;74.80
47114;DHT22;32867;51.556;6.832;2023-02-28T23:32:55;3.80;74.90
47114;DHT22;32867;51.556;6.832;2023-02-28T23:37:56;3.80;75.00
47114;DHT22;32867;51.556;6.832;2023-02-28T23:42:57;3.70;75.30
47114;DHT22;32867;51.556;6.832;2023-02-28T23:47:58;3.60;75.60
47114;DHT22;32867;51.556;6.832;2023-02-28T23:52:59;3.50;76.10
47114;DHT22;32867;51.556;6.832;2023-02-28T23:57:59;3.50;76.10
